KC7RJK-2 Weather Reports


Display with metric or nautical units.
time (UTC)temp
F
wind
direction
speed
MPH
gust
MPH
rain 1hr
in
rain 24hr
in
rain mn
in
humidity
%
barometer
mb
20171122053313 58 144 3.0 6.0 0.00 0.19 0.09 96 1015.8
20171122052313 58 148 3.0 8.0 0.01 0.21 0.09 96 1016.1
20171122051313 58 146 7.0 10.0 0.01 0.21 0.09 97 1015.9
20171122050313 58 149 2.0 6.0 0.01 0.21 0.09 97 1015.9
20171122045313 58 150 3.0 9.0 0.02 0.23 0.09 97 1015.9
20171122044313 59 146 3.0 7.0 0.02 0.23 0.09 97 1016.0
20171122043313 59 140 3.0 5.0 0.02 0.23 0.09 97 1016.4
20171121232312 66 146 3.0 6.0 0.00 0.20 0.05 81 1013.8
20171121231312 66 141 4.0 5.0 0.00 0.20 0.05 82 1013.7
20171121230312 66 145 3.0 4.0 0.00 0.20 0.05 82 1013.6
20171121225312 66 160 1.0 3.0 0.00 0.20 0.05 84 1013.7
20171121224312 66 160 2.0 3.0 0.00 0.20 0.05 81 1013.6
20171121223312 67 152 2.0 5.0 0.00 0.20 0.05 82 1013.5
20171121222312 67 154 3.0 5.0 0.00 0.20 0.05 81 1013.7
20171121221312 67 152 1.0 4.0 0.00 0.20 0.05 80 1013.7
20171121220312 66 121 3.0 6.0 0.00 0.20 0.05 81 1013.7
20171121215312 66 138 3.0 6.0 0.00 0.20 0.05 81 1013.7
20171121214312 66 156 3.0 6.0 0.00 0.20 0.05 81 1013.8
20171121213312 66 144 4.0 6.0 0.00 0.20 0.05 81 1013.8
20171121212312 66 144 3.0 9.0 0.00 0.20 0.05 81 1013.8
20171121211312 66 132 6.0 8.0 0.00 0.20 0.05 81 1013.8
20171121210312 65 140 8.0 8.0 0.00 0.20 0.05 81 1013.9
20171121205312 64 186 2.0 7.0 0.00 0.20 0.05 84 1013.9
20171121204312 64 185 4.0 9.0 0.00 0.20 0.05 85 1013.9
20171121203312 64 134 6.0 7.0 0.00 0.20 0.05 86 1013.9
20171121202312 63 145 4.0 7.0 0.00 0.20 0.05 86 1014.0
20171121201312 63 142 3.0 7.0 0.00 0.20 0.05 88 1014.0
20171121200312 62 175 4.0 6.0 0.00 0.20 0.05 90 1014.0
20171121195312 62 183 2.0 5.0 0.00 0.20 0.05 91 1014.4
20171121194312 61 182 3.0 4.0 0.00 0.20 0.05 91 1014.3
20171121193312 61 181 3.0 5.0 0.00 0.20 0.05 91 1014.5
20171121192312 61 185 3.0 5.0 0.00 0.20 0.05 91 1014.5
20171121191312 60 171 3.0 6.0 0.00 0.20 0.05 91 1014.5
20171121190312 60 173 3.0 9.0 0.00 0.20 0.05 91 1014.6
20171121185312 60 181 3.0 11.0 0.00 0.20 0.05 91 1014.3
20171121184312 59 177 4.0 10.0 0.00 0.20 0.05 92 1014.3
20171121183312 58 175 4.0 11.0 0.00 0.20 0.05 94 1014.3
20171121182312 58 141 5.0 9.0 0.00 0.20 0.05 94 1014.4
20171121181312 58 168 7.0 7.0 0.00 0.20 0.05 95 1014.2
20171121180312 58 174 3.0 9.0 0.00 0.20 0.05 95 1014.2
20171121175311 57 168 5.0 9.0 0.00 0.22 0.05 95 1014.1
20171121174312 56 169 3.0 10.0 0.00 0.22 0.05 96 1014.0
20171121173311 56 175 5.0 10.0 0.00 0.22 0.05 97 1014.1
20171121172311 56 166 6.0 7.0 0.01 0.25 0.05 97 1014.2
20171121171311 55 177 1.0 7.0 0.01 0.25 0.05 97 1014.3
20171121170311 56 170 3.0 8.0 0.01 0.25 0.05 97 1014.2
20171121165311 56 183 6.0 9.0 0.01 0.26 0.05 98 1014.4
20171121164311 55 187 3.0 11.0 0.01 0.26 0.05 98 1014.6
20171121163311 55 144 3.0 10.0 0.01 0.26 0.05 98 1014.8
20171121162311 54 129 6.0 10.0 0.00 0.26 0.04 98 1015.1
20171121161311 54 138 9.0 10.0 0.00 0.26 0.04 98 1015.1
20171121160311 53 130 8.0 12.0 0.00 0.26 0.04 98 1015.1
20171121155311 52 138 5.0 9.0 0.00 0.27 0.04 98 1015.1
20171121154311 51 138 6.0 9.0 0.00 0.27 0.04 98 1015.2
20171121153311 50 165 2.0 6.0 0.00 0.27 0.04 98 1015.5
20171121152311 50 202 4.0 4.0 0.01 0.27 0.04 98 1015.3
20171121151311 50 222 0.0 3.0 0.01 0.27 0.04 98 1014.9
20171121150311 50 310 0.0 0.0 0.01 0.27 0.04 98 1015.0
20171121145311 50 313 0.0 0.0 0.01 0.29 0.04 97 1014.9
20171121144311 50 313 0.0 0.0 0.01 0.29 0.04 97 1014.9
20171121143311 50 313 0.0 0.0 0.01 0.29 0.04 97 1014.9
20171121142311 50 313 0.0 0.0 0.01 0.33 0.04 97 1014.7
20171121141311 50 313 0.0 0.0 0.01 0.32 0.04 97 1014.8
20171121140311 50 313 0.0 4.0 0.00 0.32 0.03 97 1014.8
20171121135311 50 331 2.0 3.0 0.00 0.33 0.03 98 1014.8
20171121134311 50 193 0.0 6.0 0.00 0.33 0.03 98 1014.7
20171121133311 50 177 4.0 5.0 0.00 0.33 0.03 97 1014.8
20171121132311 50 133 2.0 6.0 0.00 0.35 0.03 97 1014.7
20171121131311 50 56 0.0 3.0 0.00 0.35 0.03 97 1014.9
20171121130311 50 204 0.0 2.0 0.00 0.35 0.03 97 1015.0
20171121125311 50 207 1.0 3.0 0.00 0.36 0.03 97 1015.3
20171121124311 50 207 0.0 3.0 0.00 0.36 0.03 97 1015.5
20171121123311 50 207 2.0 3.0 0.00 0.36 0.03 97 1015.8
20171121122311 51 207 3.0 3.0 0.00 0.36 0.03 97 1015.6
20171121121311 51 260 2.0 2.0 0.00 0.36 0.03 97 1015.2
20171121120311 51 260 0.0 2.0 0.00 0.36 0.03 97 1015.4
20171121115311 51 260 0.0 0.0 0.00 0.36 0.03 97 1015.2
20171121114311 51 260 0.0 3.0 0.00 0.36 0.03 97 1015.8
20171121113311 52 175 3.0 3.0 0.00 0.36 0.03 97 1016.1
20171121112311 52 175 0.0 0.0 0.00 0.36 0.03 97 1015.9
20171121111310 52 175 0.0 2.0 0.00 0.36 0.03 97 1015.5
20171121110310 52 175 1.0 4.0 0.00 0.36 0.03 98 1015.9
20171121105311 52 179 3.0 7.0 0.00 0.36 0.03 98 1015.6
20171121104311 52 169 7.0 8.0 0.00 0.36 0.03 97 1015.4
20171121103310 52 204 3.0 7.0 0.00 0.36 0.03 97 1015.3
20171121102310 52 175 6.0 8.0 0.02 0.36 0.03 97 1015.5
20171121101310 52 260 3.0 6.0 0.02 0.36 0.03 98 1015.6
20171121100311 51 190 4.0 10.0 0.02 0.36 0.03 98 1015.1
20171121095310 50 132 4.0 8.0 0.03 0.36 0.03 97 1014.9
20171121094311 50 158 2.0 3.0 0.03 0.36 0.03 97 1015.4
20171121093310 50 90 0.0 3.0 0.03 0.36 0.03 97 1015.5
20171121092310 50 206 0.0 3.0 0.02 0.35 0.02 97 1015.6
20171121091310 50 206 0.0 0.0 0.01 0.34 0.01 97 1015.6
20171121090310 50 206 0.0 0.0 0.01 0.34 0.01 97 1015.8
20171121085310 50 207 0.0 0.0 0.05 0.34 0.01 97 1015.4
20171121084310 50 207 0.0 0.0 0.05 0.34 0.01 97 1015.3
20171121083310 50 207 0.0 0.0 0.05 0.33 0.01 97 1015.7
20171121082310 50 207 0.0 0.0 0.05 0.33 0.00 97 1015.6
20171121081310 50 207 0.0 4.0 0.05 0.33 0.00 97 1015.6
20171121080311 50 111 0.0 0.0 0.05 0.33 0.00 97 1015.6
20171121075310 50 137 0.0 2.0 0.06 0.32 0.32 97 1015.6
20171121074310 50 135 0.0 0.0 0.04 0.30 0.30 97 1015.6
20171121073310 50 135 0.0 0.0 0.03 0.29 0.29 97 1015.3
20171121072310 50 135 0.0 0.0 0.03 0.29 0.29 97 1015.4
20171121071310 50 135 0.0 0.0 0.02 0.28 0.28 97 1015.3
20171121070310 50 135 0.0 0.0 0.02 0.28 0.28 97 1015.5
20171121065310 50 135 0.0 0.0 0.03 0.26 0.26 97 1015.6
20171121064310 50 135 0.0 0.0 0.03 0.26 0.26 97 1015.7
20171121063310 50 135 0.0 0.0 0.03 0.26 0.26 97 1015.5
20171121062310 50 135 0.0 0.0 0.05 0.26 0.26 97 1015.7
20171121061310 50 135 0.0 0.0 0.05 0.26 0.26 96 1015.4
20171121060310 50 135 0.0 3.0 0.05 0.26 0.26 96 1015.4
20171121055310 50 137 2.0 3.0 0.06 0.25 0.25 96 1015.4
20171121054310 50 134 3.0 3.0 0.06 0.25 0.25 96 1015.4